createdAt,value
2018-05-26T00:02:06.429Z,66.64
2018-05-26T00:04:34.896Z,66.35
2018-05-26T00:07:03.400Z,66.89
2018-05-26T00:09:31.888Z,66.68
2018-05-26T00:12:00.384Z,66.51
2018-05-26T00:14:28.909Z,66.49
2018-05-26T00:16:57.400Z,66.37
2018-05-26T00:19:25.900Z,66.36
2018-05-26T00:21:54.403Z,66.49
2018-05-26T00:24:22.914Z,66.13
2018-05-26T00:26:51.377Z,66.29
2018-05-26T00:29:19.906Z,66.64
2018-05-26T00:31:48.366Z,66.34
2018-05-26T00:34:16.868Z,66.02
2018-05-26T00:36:45.319Z,65.73
2018-05-26T00:39:13.763Z,65.35
2018-05-26T00:41:42.228Z,64.97
2018-05-26T00:44:10.668Z,65.00
2018-05-26T00:46:39.168Z,64.87
2018-05-26T00:49:07.645Z,64.65
2018-05-26T00:51:36.156Z,64.39
2018-05-26T00:54:04.657Z,64.32
2018-05-26T00:56:33.168Z,64.38
2018-05-26T00:59:01.652Z,64.18
2018-05-26T01:01:30.153Z,64.52
2018-05-26T01:03:58.618Z,64.79
2018-05-26T01:06:27.121Z,65.24
2018-05-26T01:08:55.620Z,65.58
2018-05-26T01:11:24.116Z,66.31
2018-05-26T01:13:53.228Z,66.32
2018-05-26T01:16:21.744Z,66.65
2018-05-26T01:18:50.210Z,67.28
2018-05-26T01:21:18.753Z,66.81
2018-05-26T01:23:47.224Z,66.73
2018-05-26T01:26:15.749Z,66.60
2018-05-26T01:28:44.248Z,66.24
2018-05-26T01:31:12.767Z,66.54
2018-05-26T01:33:41.276Z,66.59
2018-05-26T01:36:09.784Z,66.84
2018-05-26T01:38:38.284Z,66.50
2018-05-26T01:41:06.796Z,67.10
2018-05-26T01:43:35.260Z,67.15
2018-05-26T01:46:03.758Z,67.12
2018-05-26T01:48:32.281Z,67.15
2018-05-26T01:51:00.788Z,67.17
2018-05-26T01:53:29.288Z,67.15
2018-05-26T01:55:57.792Z,67.08
2018-05-26T01:58:26.256Z,67.21
2018-05-26T02:00:54.772Z,67.45
2018-05-26T02:03:23.300Z,67.78
2018-05-26T02:05:51.833Z,68.03
2018-05-26T02:08:20.323Z,67.97
2018-05-26T02:10:48.790Z,67.90
2018-05-26T02:13:17.304Z,68.09
2018-05-26T02:15:45.809Z,68.03
2018-05-26T02:18:14.324Z,68.03
2018-05-26T02:20:42.836Z,68.14
2018-05-26T02:23:11.309Z,68.49
2018-05-26T02:25:39.856Z,68.62
2018-05-26T02:28:08.322Z,68.63
2018-05-26T02:30:36.813Z,68.99
2018-05-26T02:33:05.329Z,68.88
2018-05-26T02:35:33.825Z,69.41
2018-05-26T02:38:02.322Z,69.65
2018-05-26T02:40:30.845Z,69.74
2018-05-26T02:42:59.348Z,69.61
2018-05-26T02:45:27.826Z,69.44
2018-05-26T02:47:56.336Z,69.81
2018-05-26T02:50:24.741Z,69.86
2018-05-26T02:52:53.256Z,69.82
2018-05-26T02:55:21.761Z,69.63
2018-05-26T02:57:50.238Z,69.38
2018-05-26T03:00:18.743Z,69.05
2018-05-26T03:02:47.253Z,68.61
2018-05-26T03:05:21.077Z,69.40
2018-05-26T03:07:55.184Z,69.28
2018-05-26T03:10:29.128Z,68.80
2018-05-26T03:13:03.032Z,69.16
2018-05-26T03:15:31.574Z,69.12
2018-05-26T03:18:00.941Z,69.05
2018-05-26T03:20:29.409Z,69.73
2018-05-26T03:22:57.877Z,69.39
2018-05-26T03:25:26.386Z,67.85
2018-05-26T03:27:54.868Z,67.65
2018-05-26T03:30:23.379Z,67.30
2018-05-26T03:32:51.893Z,67.51
2018-05-26T03:35:20.385Z,66.92
2018-05-26T03:37:48.888Z,67.25
2018-05-26T03:40:17.397Z,66.98
2018-05-26T03:42:45.865Z,66.42
2018-05-26T03:45:14.364Z,65.55
2018-05-26T03:47:42.837Z,64.46
2018-05-26T03:50:11.332Z,63.74
2018-05-26T03:52:39.857Z,63.61
2018-05-26T03:58:20.037Z,61.43
2018-05-26T04:00:48.523Z,60.22
2018-05-26T04:03:17.036Z,59.52
2018-05-26T04:05:45.689Z,58.54
2018-05-26T04:08:14.277Z,57.89
2018-05-26T04:10:42.788Z,57.39
2018-05-26T04:13:11.341Z,56.97
2018-05-26T04:15:40.030Z,56.64
2018-05-26T04:18:08.540Z,56.85
2018-05-26T04:20:37.009Z,56.91
2018-05-26T04:23:05.520Z,56.16
2018-05-26T04:25:33.994Z,55.69
2018-05-26T04:28:02.512Z,55.17
2018-05-26T04:30:30.988Z,54.82
2018-05-26T04:32:59.496Z,54.42
2018-05-26T04:35:28.029Z,55.14
2018-05-26T04:37:56.503Z,54.44
2018-05-26T04:40:25.017Z,53.83
2018-05-26T04:42:53.494Z,53.45
2018-05-26T04:45:22.005Z,52.85
2018-05-26T04:47:50.481Z,51.74
2018-05-26T04:50:18.984Z,52.00
2018-05-26T04:52:47.469Z,53.04
2018-05-26T04:55:15.977Z,52.14
2018-05-26T04:57:44.444Z,51.25
2018-05-26T05:00:12.944Z,51.35
2018-05-26T05:02:41.411Z,50.90
2018-05-26T05:05:09.916Z,51.22
2018-05-26T05:07:38.409Z,50.38
2018-05-26T05:10:06.913Z,51.01
2018-05-26T05:12:35.385Z,50.83
2018-05-26T05:15:03.912Z,48.61
2018-05-26T05:17:32.396Z,49.52
2018-05-26T05:20:00.920Z,50.41
2018-05-26T05:22:29.433Z,49.67
2018-05-26T05:24:57.937Z,48.64
2018-05-26T05:27:26.404Z,48.70
2018-05-26T05:29:54.908Z,47.24
2018-05-26T05:32:23.398Z,46.29
2018-05-26T05:34:51.937Z,47.43
2018-05-26T05:37:20.409Z,47.16
2018-05-26T05:39:48.933Z,46.88
2018-05-26T05:42:17.447Z,46.33
2018-05-26T05:44:45.964Z,45.21
2018-05-26T05:47:14.431Z,45.60
2018-05-26T05:49:42.952Z,45.22
2018-05-26T05:52:11.420Z,44.54
2018-05-26T05:54:39.922Z,45.19
2018-05-26T05:57:08.400Z,45.12
2018-05-26T05:59:36.884Z,44.03
2018-05-26T06:02:05.356Z,43.02
2018-05-26T06:04:33.905Z,42.63
2018-05-26T06:07:02.400Z,43.23
2018-05-26T06:09:30.900Z,42.27
2018-05-26T06:11:59.368Z,42.28
2018-05-26T06:14:27.898Z,42.64
2018-05-26T06:16:56.373Z,42.37
2018-05-26T06:19:24.840Z,41.72
2018-05-26T06:21:53.353Z,41.91
2018-05-26T06:24:21.820Z,42.61
2018-05-26T06:26:50.328Z,43.54
2018-05-26T06:29:18.830Z,42.40
2018-05-26T06:31:47.362Z,42.81
2018-05-26T06:34:15.845Z,42.25
2018-05-26T06:36:44.367Z,43.34
2018-05-26T06:39:12.857Z,42.21
2018-05-26T06:41:41.378Z,43.52
2018-05-26T06:44:09.888Z,42.73
2018-05-26T06:46:38.357Z,41.58
2018-05-26T06:49:06.877Z,41.91
2018-05-26T06:51:35.385Z,41.41
2018-05-26T06:54:03.951Z,42.87
2018-05-26T06:56:32.440Z,41.94
2018-05-26T06:59:00.904Z,41.51
2018-05-26T07:01:29.414Z,41.39
2018-05-26T07:03:57.921Z,41.68
2018-05-26T07:06:26.468Z,40.68
2018-05-26T07:08:54.992Z,40.16
2018-05-26T07:11:23.469Z,40.09
2018-05-26T07:13:51.972Z,40.07
2018-05-26T07:16:20.484Z,38.80
2018-05-26T07:18:48.988Z,39.91
2018-05-26T07:21:17.467Z,40.67
2018-05-26T07:23:45.989Z,40.25
2018-05-26T07:26:14.500Z,39.81
2018-05-26T07:28:43.053Z,40.30
2018-05-26T07:31:11.532Z,40.13
2018-05-26T07:33:40.084Z,39.99
2018-05-26T07:36:08.540Z,41.14
2018-05-26T07:38:37.064Z,41.38
2018-05-26T07:41:05.548Z,41.21
2018-05-26T07:43:34.029Z,42.00
2018-05-26T07:46:02.538Z,41.54
2018-05-26T07:48:31.048Z,41.79
2018-05-26T07:50:59.520Z,41.11
2018-05-26T07:53:28.041Z,40.79
2018-05-26T07:55:56.516Z,40.55
2018-05-26T07:58:24.989Z,41.20
2018-05-26T08:00:53.519Z,39.95
2018-05-26T08:03:22.019Z,39.85
2018-05-26T08:05:50.520Z,39.82
2018-05-26T08:08:19.000Z,38.62
2018-05-26T08:10:47.518Z,40.21
2018-05-26T08:13:16.009Z,38.81
2018-05-26T08:15:44.513Z,38.56
2018-05-26T08:18:12.983Z,38.82
2018-05-26T08:20:41.497Z,39.10
2018-05-26T08:23:10.013Z,39.78
2018-05-26T08:25:38.506Z,36.77
2018-05-26T08:28:07.001Z,36.94
2018-05-26T08:30:35.521Z,36.65
2018-05-26T08:33:04.021Z,34.62
2018-05-26T08:35:32.496Z,35.38
2018-05-26T08:38:01.013Z,35.77
2018-05-26T08:40:29.525Z,35.69
2018-05-26T08:42:58.040Z,35.01
2018-05-26T08:45:26.529Z,36.00
2018-05-26T08:47:55.084Z,34.53
2018-05-26T08:50:23.548Z,35.72
2018-05-26T08:52:52.072Z,34.26
2018-05-26T08:55:20.537Z,34.71
2018-05-26T08:57:49.004Z,34.91
2018-05-26T09:00:17.520Z,34.47
2018-05-26T09:02:45.988Z,35.30
2018-05-26T09:05:14.491Z,36.37
2018-05-26T09:07:43.016Z,34.45
2018-05-26T09:10:11.549Z,33.99
2018-05-26T09:12:40.051Z,34.29
2018-05-26T09:15:08.533Z,33.74
2018-05-26T09:17:37.049Z,34.05
2018-05-26T09:20:05.572Z,33.97
2018-05-26T09:22:34.091Z,33.71
2018-05-26T09:25:02.653Z,33.79
2018-05-26T09:27:31.097Z,33.61
2018-05-26T09:29:59.595Z,34.85
2018-05-26T09:32:28.100Z,34.42
2018-05-26T09:34:56.568Z,33.24
2018-05-26T09:37:25.077Z,33.65
2018-05-26T09:39:53.554Z,33.73
2018-05-26T09:42:22.068Z,33.88
2018-05-26T09:44:50.541Z,33.91
2018-05-26T09:47:19.057Z,33.11
2018-05-26T09:49:47.572Z,34.61
2018-05-26T09:52:16.052Z,33.38
2018-05-26T09:54:44.566Z,33.94
2018-05-26T09:57:13.041Z,33.44
2018-05-26T09:59:41.540Z,34.81
2018-05-26T10:02:10.015Z,33.31
2018-05-26T10:04:38.498Z,34.08
2018-05-26T10:07:07.013Z,32.80
2018-05-26T10:09:35.477Z,31.04
2018-05-26T10:12:03.989Z,32.05
2018-05-26T10:14:32.505Z,30.81
2018-05-26T10:17:00.993Z,31.10
2018-05-26T10:19:29.505Z,31.86
2018-05-26T10:21:57.986Z,31.02
2018-05-26T10:24:26.510Z,32.41
2018-05-26T10:26:55.007Z,42.50
2018-05-26T10:29:23.520Z,60.51
2018-05-26T10:31:52.016Z,63.18
2018-05-26T10:34:20.542Z,68.72
2018-05-26T10:36:49.029Z,71.05
2018-05-26T10:39:17.521Z,71.18
2018-05-26T10:41:46.061Z,72.80
2018-05-26T10:44:14.519Z,71.38
2018-05-26T10:46:43.040Z,71.95
2018-05-26T10:49:11.549Z,73.01
2018-05-26T10:51:40.070Z,74.20
2018-05-26T10:54:08.524Z,71.59
2018-05-26T10:56:37.021Z,72.10
2018-05-26T10:59:05.514Z,72.66
2018-05-26T11:01:33.996Z,71.15
2018-05-26T11:04:02.453Z,71.81
2018-05-26T11:09:24.045Z,75.77
2018-05-26T11:11:52.642Z,74.21
2018-05-26T11:14:21.230Z,71.28
2018-05-26T11:16:49.701Z,70.00
2018-05-26T11:19:18.180Z,73.28
2018-05-26T11:21:46.774Z,74.02
2018-05-26T11:24:15.305Z,70.89
2018-05-26T11:26:43.777Z,70.20
2018-05-26T11:29:12.201Z,71.97
2018-05-26T11:31:40.658Z,71.30
2018-05-26T11:34:09.106Z,70.97
2018-05-26T11:36:37.592Z,71.74
2018-05-26T11:39:06.038Z,71.87
2018-05-26T11:41:34.523Z,72.30
2018-05-26T11:44:03.009Z,73.64
2018-05-26T11:46:31.493Z,72.57
2018-05-26T11:48:59.946Z,72.41
2018-05-26T11:51:28.424Z,72.31
2018-05-26T11:53:56.912Z,71.93
2018-05-26T11:56:25.367Z,69.41
2018-05-26T11:58:53.849Z,67.16
2018-05-26T12:01:22.301Z,69.26
2018-05-26T12:03:50.794Z,69.58
2018-05-26T12:06:19.242Z,70.86
2018-05-26T12:08:47.674Z,63.20
2018-05-26T12:11:16.152Z,62.09
2018-05-26T12:13:44.605Z,64.59
2018-05-26T12:16:13.148Z,63.82
2018-05-26T12:18:41.630Z,59.76
2018-05-26T12:21:10.127Z,60.27
2018-05-26T12:23:38.628Z,61.01
2018-05-26T12:26:07.117Z,62.97
2018-05-26T12:28:35.560Z,57.98
2018-05-26T12:31:04.044Z,55.31
2018-05-26T12:33:32.524Z,57.80
2018-05-26T12:36:00.976Z,56.13
2018-05-26T12:38:29.460Z,56.42
2018-05-26T12:40:57.909Z,56.34
2018-05-26T12:43:26.406Z,54.04
2018-05-26T12:45:54.865Z,54.51
2018-05-26T12:48:23.341Z,54.59
2018-05-26T12:50:51.794Z,54.60
2018-05-26T12:53:20.281Z,54.72
2018-05-26T12:55:48.741Z,54.86
2018-05-26T12:58:17.228Z,53.72
2018-05-26T13:00:45.683Z,52.32
2018-05-26T13:03:14.172Z,52.87
2018-05-26T13:05:42.668Z,51.85
2018-05-26T13:08:11.129Z,50.40
2018-05-26T13:10:39.618Z,50.82
2018-05-26T13:13:08.117Z,51.12
2018-05-26T13:15:36.545Z,51.22
2018-05-26T13:18:05.100Z,49.84
2018-05-26T13:20:33.544Z,48.88
2018-05-26T13:23:01.983Z,49.74
2018-05-26T13:25:30.457Z,48.98
2018-05-26T13:27:58.966Z,47.98
2018-05-26T13:30:27.430Z,47.84
2018-05-26T13:32:55.916Z,48.77
2018-05-26T13:35:24.376Z,48.30
2018-05-26T13:37:52.861Z,48.00
2018-05-26T13:40:21.316Z,45.04
2018-05-26T13:42:49.801Z,46.23
2018-05-26T13:45:18.314Z,45.16
2018-05-26T13:47:46.969Z,46.25
2018-05-26T13:50:15.486Z,45.15
2018-05-26T13:52:43.985Z,45.30
2018-05-26T13:55:12.537Z,44.89
2018-05-26T13:57:41.029Z,44.72
2018-05-26T14:00:09.519Z,45.69
2018-05-26T14:02:38.013Z,45.31
2018-05-26T14:05:06.529Z,45.33
2018-05-26T14:07:34.989Z,44.42
2018-05-26T14:10:03.600Z,44.98
2018-05-26T14:12:32.056Z,45.50
2018-05-26T14:15:00.568Z,46.15
2018-05-26T14:17:29.028Z,46.01
2018-05-26T14:19:57.483Z,46.35
2018-05-26T14:22:25.992Z,46.39
2018-05-26T14:24:54.464Z,46.06
2018-05-26T14:27:22.989Z,46.77
2018-05-26T14:29:51.460Z,45.97
2018-05-26T14:32:19.973Z,46.66
2018-05-26T14:34:48.452Z,46.28
2018-05-26T14:37:16.952Z,46.03
2018-05-26T14:39:45.416Z,44.35
2018-05-26T14:42:13.992Z,43.97
2018-05-26T14:44:42.439Z,44.68
2018-05-26T14:47:10.952Z,44.47
2018-05-26T14:49:39.426Z,44.44
2018-05-26T14:52:07.932Z,43.65
2018-05-26T14:54:36.410Z,44.07
2018-05-26T14:57:04.937Z,43.91
2018-05-26T14:59:33.457Z,43.53
2018-05-26T15:02:01.965Z,42.46
2018-05-26T15:04:30.441Z,42.73
2018-05-26T15:06:58.952Z,43.80
2018-05-26T15:09:27.433Z,42.40
2018-05-26T15:11:55.950Z,41.34
2018-05-26T15:14:24.432Z,41.18
2018-05-26T15:16:52.944Z,41.99
2018-05-26T15:19:21.438Z,42.44
2018-05-26T15:21:49.944Z,42.01
2018-05-26T15:24:18.448Z,41.96
2018-05-26T15:26:46.919Z,42.17
2018-05-26T15:29:15.432Z,42.44
2018-05-26T15:31:43.937Z,41.79
2018-05-26T15:34:12.460Z,41.89
2018-05-26T15:36:40.925Z,42.19
2018-05-26T15:39:09.393Z,42.44
2018-05-26T15:41:37.913Z,43.52
2018-05-26T15:44:06.368Z,43.30
2018-05-26T15:46:34.834Z,43.11
2018-05-26T15:49:03.341Z,43.18
2018-05-26T15:51:31.863Z,43.27
2018-05-26T15:54:00.345Z,43.07
2018-05-26T15:56:28.835Z,42.75
2018-05-26T15:58:57.315Z,42.61
2018-05-26T16:01:25.820Z,42.79
2018-05-26T16:03:54.309Z,42.10
2018-05-26T16:06:22.776Z,42.62
2018-05-26T16:08:51.292Z,42.24
2018-05-26T16:11:19.764Z,42.20
2018-05-26T16:13:48.272Z,42.02
2018-05-26T16:16:16.736Z,42.24
2018-05-26T16:18:45.256Z,41.71
2018-05-26T16:21:13.736Z,41.68
2018-05-26T16:23:42.242Z,41.83
2018-05-26T16:26:10.723Z,42.53
2018-05-26T16:28:39.225Z,43.03
2018-05-26T16:31:07.745Z,43.56
2018-05-26T16:33:36.221Z,43.81
2018-05-26T16:36:04.692Z,44.63
2018-05-26T16:38:33.200Z,45.10
2018-05-26T16:41:01.660Z,45.61
2018-05-26T16:43:30.205Z,46.06
2018-05-26T16:45:58.673Z,46.49
2018-05-26T16:48:27.196Z,46.89
2018-05-26T16:50:55.724Z,47.34
2018-05-26T16:53:24.237Z,47.32
2018-05-26T16:55:52.732Z,47.39
2018-05-26T16:58:21.208Z,47.04
2018-05-26T17:00:49.719Z,47.34
2018-05-26T17:03:18.201Z,49.21
2018-05-26T17:05:46.714Z,49.04
2018-05-26T17:08:15.206Z,48.82
2018-05-26T17:10:43.734Z,49.23
2018-05-26T17:13:12.234Z,49.49
2018-05-26T17:15:40.723Z,50.37
2018-05-26T17:18:09.210Z,51.34
2018-05-26T17:20:37.716Z,52.11
2018-05-26T17:23:06.201Z,52.49
2018-05-26T17:25:34.720Z,52.81
2018-05-26T17:28:03.200Z,53.96
2018-05-26T17:30:31.724Z,54.62
2018-05-26T17:33:00.244Z,54.93
2018-05-26T17:35:28.731Z,55.41
2018-05-26T17:37:57.252Z,55.24
2018-05-26T17:40:25.749Z,56.70
2018-05-26T17:42:54.288Z,56.45
2018-05-26T17:45:22.801Z,57.03
2018-05-26T17:47:51.281Z,56.54
2018-05-26T17:50:19.789Z,57.23
2018-05-26T17:52:48.273Z,56.79
2018-05-26T17:55:16.788Z,57.02
2018-05-26T17:57:45.304Z,56.35
2018-05-26T18:00:13.785Z,56.54
2018-05-26T18:02:42.260Z,56.34
2018-05-26T18:05:10.736Z,57.07
2018-05-26T18:07:39.266Z,57.65
2018-05-26T18:10:07.821Z,58.05
2018-05-26T18:12:36.333Z,62.73
2018-05-26T18:15:04.905Z,65.06
2018-05-26T18:17:33.465Z,65.49
2018-05-26T18:20:01.981Z,68.03
2018-05-26T18:22:30.507Z,67.35
2018-05-26T18:24:59.014Z,67.38
2018-05-26T18:27:27.524Z,67.45
2018-05-26T18:29:56.001Z,67.34
2018-05-26T18:32:24.521Z,67.03
2018-05-26T18:34:53.013Z,67.99
2018-05-26T18:37:21.533Z,67.60
2018-05-26T18:39:50.048Z,69.02
2018-05-26T18:42:18.564Z,69.24
2018-05-26T18:44:47.041Z,69.01
2018-05-26T18:47:15.577Z,69.03
2018-05-26T18:49:44.056Z,68.62
2018-05-26T18:52:12.572Z,68.41
2018-05-26T18:54:41.081Z,68.20
2018-05-26T18:57:09.601Z,67.62
2018-05-26T18:59:38.072Z,67.47
2018-05-26T19:02:06.585Z,67.32
2018-05-26T19:04:35.064Z,67.67
2018-05-26T19:07:03.629Z,68.14
2018-05-26T19:09:32.113Z,67.47
2018-05-26T19:12:00.627Z,67.55
2018-05-26T19:14:29.109Z,66.39
2018-05-26T19:16:57.625Z,67.53
2018-05-26T19:19:26.180Z,67.74
2018-05-26T19:21:54.652Z,67.14
2018-05-26T19:24:23.145Z,66.94
2018-05-26T19:26:51.659Z,66.01
2018-05-26T19:29:20.180Z,66.97
2018-05-26T19:31:48.723Z,66.99
2018-05-26T19:34:17.204Z,67.57
2018-05-26T19:36:45.676Z,67.94
2018-05-26T19:39:14.192Z,67.45
2018-05-26T19:41:42.677Z,67.12
2018-05-26T19:44:11.200Z,67.96
2018-05-26T19:46:39.730Z,66.72
2018-05-26T19:49:08.261Z,66.86
2018-05-26T19:51:36.749Z,67.60
2018-05-26T19:54:05.228Z,68.58
2018-05-26T19:56:33.776Z,67.94
2018-05-26T19:59:02.266Z,67.34
2018-05-26T20:01:30.805Z,67.14
2018-05-26T20:03:59.293Z,67.28
2018-05-26T20:06:27.817Z,68.25
2018-05-26T20:08:56.297Z,68.98
2018-05-26T20:11:24.808Z,69.53
2018-05-26T20:13:53.284Z,70.17
2018-05-26T20:16:21.798Z,69.76
2018-05-26T20:18:50.292Z,69.70
2018-05-26T20:21:18.816Z,69.90
2018-05-26T20:23:47.292Z,70.09
2018-05-26T20:26:15.768Z,69.91
2018-05-26T20:28:44.237Z,69.52
2018-05-26T20:31:12.724Z,69.72
2018-05-26T20:33:41.244Z,69.75
2018-05-26T20:36:09.760Z,69.16
2018-05-26T20:38:38.246Z,68.70
2018-05-26T20:41:06.773Z,68.97
2018-05-26T20:43:35.340Z,68.72
2018-05-26T20:46:03.813Z,68.23
2018-05-26T20:48:32.318Z,68.78
2018-05-26T20:51:00.832Z,68.28
2018-05-26T20:53:29.309Z,67.85
2018-05-26T20:55:57.830Z,67.49
2018-05-26T20:58:26.304Z,67.41
2018-05-26T21:00:54.805Z,67.62
2018-05-26T21:03:23.329Z,67.75
2018-05-26T21:05:51.805Z,67.68
2018-05-26T21:08:20.320Z,68.91
2018-05-26T21:10:48.801Z,67.93
2018-05-26T21:13:17.328Z,68.09
2018-05-26T21:15:45.815Z,68.33
2018-05-26T21:18:14.310Z,68.40
2018-05-26T21:20:42.845Z,68.70
2018-05-26T21:23:11.333Z,68.98
2018-05-26T21:25:39.856Z,69.37
2018-05-26T21:28:08.336Z,70.23
2018-05-26T21:30:36.853Z,69.86
2018-05-26T21:33:05.368Z,69.94
2018-05-26T21:35:33.895Z,70.11
2018-05-26T21:38:02.389Z,70.68
2018-05-26T21:40:30.916Z,70.50
2018-05-26T21:42:59.458Z,71.38
2018-05-26T21:45:27.976Z,71.41
2018-05-26T21:47:56.477Z,72.31
2018-05-26T21:50:24.984Z,72.44
2018-05-26T21:52:53.485Z,72.08
2018-05-26T21:55:21.986Z,72.36
2018-05-26T21:57:50.520Z,72.95
2018-05-26T22:00:19.005Z,72.85
2018-05-26T22:02:47.500Z,72.93
2018-05-26T22:05:15.991Z,72.29
2018-05-26T22:07:44.524Z,72.45
2018-05-26T22:10:13.070Z,72.57
2018-05-26T22:12:41.588Z,73.06
2018-05-26T22:15:10.113Z,73.08
2018-05-26T22:17:38.580Z,73.37
2018-05-26T22:20:07.120Z,73.27
2018-05-26T22:22:35.628Z,72.55
2018-05-26T22:25:04.145Z,72.78
2018-05-26T22:27:32.657Z,72.76
2018-05-26T22:30:01.178Z,72.29
2018-05-26T22:32:29.724Z,71.75
2018-05-26T22:34:58.227Z,71.63
2018-05-26T22:37:26.709Z,71.80
2018-05-26T22:39:55.229Z,71.47
2018-05-26T22:42:23.733Z,72.26
2018-05-26T22:44:52.247Z,72.72
2018-05-26T22:47:20.716Z,73.09
2018-05-26T22:49:49.241Z,72.67
2018-05-26T22:52:17.709Z,73.15
2018-05-26T22:54:46.212Z,73.60
2018-05-26T22:57:14.728Z,73.30
2018-05-26T22:59:43.212Z,73.69
2018-05-26T23:02:11.680Z,73.00
2018-05-26T23:04:40.197Z,73.59
2018-05-26T23:07:08.684Z,73.57
2018-05-26T23:09:37.196Z,73.70
2018-05-26T23:12:05.680Z,73.90
2018-05-26T23:14:34.244Z,74.16
2018-05-26T23:17:02.738Z,74.07
2018-05-26T23:19:31.253Z,73.90
2018-05-26T23:21:59.771Z,74.13
2018-05-26T23:24:28.273Z,74.27
2018-05-26T23:26:56.780Z,73.66
2018-05-26T23:29:25.261Z,73.55
2018-05-26T23:31:53.788Z,73.78
2018-05-26T23:34:22.304Z,73.83
2018-05-26T23:36:50.780Z,74.16
2018-05-26T23:39:19.260Z,74.04
2018-05-26T23:41:47.772Z,73.70
2018-05-26T23:44:16.304Z,73.26
2018-05-26T23:46:44.788Z,72.97
2018-05-26T23:49:13.268Z,72.88
2018-05-26T23:51:41.785Z,72.79
2018-05-26T23:54:10.273Z,72.70
2018-05-26T23:56:38.784Z,72.31
2018-05-26T23:59:07.293Z,72.41
